createdAt,value
2022-11-13T00:03:06.210Z,15.50
2022-11-13T00:07:15.547Z,15.50
2022-11-13T00:11:26.216Z,15.50
2022-11-13T00:15:35.557Z,15.40
2022-11-13T00:19:44.742Z,15.40
2022-11-13T00:23:54.334Z,15.40
2022-11-13T00:28:04.983Z,15.40
2022-11-13T00:32:14.301Z,15.40
2022-11-13T00:36:26.438Z,15.30
2022-11-13T00:40:36.281Z,15.40
2022-11-13T00:44:46.746Z,15.30
2022-11-13T00:48:55.998Z,15.30
2022-11-13T00:53:05.075Z,15.30
2022-11-13T00:57:14.220Z,15.30
2022-11-13T01:01:24.893Z,15.30
2022-11-13T01:05:43.540Z,15.30
2022-11-13T01:09:53.256Z,15.30
2022-11-13T01:14:02.442Z,15.30
2022-11-13T01:18:13.725Z,15.30
2022-11-13T01:22:22.874Z,15.30
2022-11-13T01:26:33.614Z,15.30
2022-11-13T01:30:42.626Z,15.30
2022-11-13T01:34:53.339Z,15.30
2022-11-13T01:39:02.407Z,15.30
2022-11-13T01:43:25.358Z,15.30
2022-11-13T01:47:34.518Z,15.40
2022-11-13T01:51:49.572Z,15.30
2022-11-13T01:55:58.734Z,15.30
2022-11-13T02:00:11.629Z,15.30
2022-11-13T02:04:20.561Z,15.30
2022-11-13T02:08:32.489Z,15.40
2022-11-13T02:12:44.800Z,15.50
2022-11-13T02:16:58.411Z,15.50
2022-11-13T02:21:18.030Z,15.40
2022-11-13T02:25:32.027Z,15.50
2022-11-13T02:29:41.280Z,15.40
2022-11-13T02:33:50.619Z,15.30
2022-11-13T02:38:06.302Z,15.30
2022-11-13T02:42:16.914Z,15.30
2022-11-13T02:46:26.252Z,15.30
2022-11-13T02:50:36.232Z,15.30
2022-11-13T02:54:45.480Z,15.30
2022-11-13T02:58:56.419Z,15.30
2022-11-13T03:03:05.632Z,15.30
2022-11-13T03:07:15.064Z,15.30
2022-11-13T03:11:24.283Z,15.30
2022-11-13T03:15:36.731Z,15.30
2022-11-13T03:19:46.222Z,15.30
2022-11-13T03:23:56.609Z,15.20
2022-11-13T03:28:06.043Z,15.10
2022-11-13T03:32:16.668Z,15.00
2022-11-13T03:36:25.814Z,14.90
2022-11-13T03:40:34.941Z,14.90
2022-11-13T03:44:44.227Z,14.80
2022-11-13T03:48:54.966Z,14.80
2022-11-13T03:53:04.245Z,14.80
2022-11-13T03:57:13.453Z,14.80
2022-11-13T04:01:22.660Z,14.70
2022-11-13T04:05:33.580Z,14.70
2022-11-13T04:09:42.885Z,14.70
2022-11-13T04:13:51.978Z,14.60
2022-11-13T04:18:01.241Z,14.60
2022-11-13T04:22:12.012Z,14.60
2022-11-13T04:26:21.222Z,14.50
2022-11-13T04:30:30.483Z,14.40
2022-11-13T04:34:40.649Z,14.40
2022-11-13T04:38:51.244Z,14.30
2022-11-13T04:43:00.480Z,14.30
2022-11-13T04:47:10.182Z,14.30
2022-11-13T04:51:19.823Z,14.30
2022-11-13T04:55:30.317Z,14.20
2022-11-13T04:59:40.248Z,14.20
2022-11-13T05:03:49.797Z,14.30
2022-11-13T05:07:59.146Z,14.20
2022-11-13T05:12:10.348Z,14.30
2022-11-13T05:16:19.426Z,14.30
2022-11-13T05:20:28.698Z,14.30
2022-11-13T05:24:37.821Z,14.30
2022-11-13T05:28:48.718Z,14.30
2022-11-13T05:32:58.301Z,14.30
2022-11-13T05:37:07.639Z,14.40
2022-11-13T05:41:18.287Z,14.40
2022-11-13T05:45:29.270Z,14.40
2022-11-13T05:49:38.347Z,14.40
2022-11-13T05:53:48.455Z,14.30
2022-11-13T05:57:57.613Z,14.30
2022-11-13T06:02:08.290Z,14.40
2022-11-13T06:06:19.304Z,14.30
2022-11-13T06:10:28.623Z,14.30
2022-11-13T06:14:37.988Z,14.20
2022-11-13T06:18:49.366Z,14.20
2022-11-13T06:23:00.174Z,14.10
2022-11-13T06:27:09.261Z,14.10
2022-11-13T06:31:20.391Z,14.10
2022-11-13T06:35:31.509Z,14.10
2022-11-13T06:39:40.776Z,14.00
2022-11-13T06:43:50.247Z,14.10
2022-11-13T06:47:59.517Z,14.00
2022-11-13T06:52:10.235Z,14.00
2022-11-13T06:56:19.926Z,13.90
2022-11-13T07:00:33.685Z,13.90
2022-11-13T07:04:45.668Z,14.00
2022-11-13T07:08:56.163Z,14.00
2022-11-13T07:13:05.135Z,13.90
2022-11-13T07:17:14.105Z,13.90
2022-11-13T07:21:24.213Z,13.90
2022-11-13T07:25:35.773Z,14.00
2022-11-13T07:29:44.867Z,14.00
2022-11-13T07:33:53.936Z,14.00
2022-11-13T07:38:03.062Z,14.00
2022-11-13T07:42:13.917Z,14.00
2022-11-13T07:46:23.004Z,14.10
2022-11-13T07:50:33.663Z,14.10
2022-11-13T07:54:43.148Z,14.20
2022-11-13T07:58:53.930Z,14.30
2022-11-13T08:03:07.394Z,14.30
2022-11-13T08:07:16.627Z,14.40
2022-11-13T08:11:26.321Z,14.50
2022-11-13T08:15:37.381Z,14.50
2022-11-13T08:19:46.383Z,14.60
2022-11-13T08:23:55.322Z,14.60
2022-11-13T08:28:08.744Z,14.70
2022-11-13T08:32:23.221Z,14.80
2022-11-13T08:36:32.259Z,14.90
2022-11-13T08:40:41.860Z,15.00
2022-11-13T08:44:50.855Z,15.10
2022-11-13T08:49:01.542Z,15.20
2022-11-13T08:53:11.326Z,15.40
2022-11-13T08:57:21.846Z,15.50
2022-11-13T09:01:31.901Z,15.60
2022-11-13T09:05:43.019Z,15.70
2022-11-13T09:09:52.270Z,15.80
2022-11-13T09:14:01.596Z,15.80
2022-11-13T09:18:12.410Z,15.90
2022-11-13T09:22:23.031Z,16.00
2022-11-13T09:26:31.963Z,16.20
2022-11-13T09:30:42.334Z,16.20
2022-11-13T09:34:51.217Z,16.40
2022-11-13T09:39:01.828Z,16.50
2022-11-13T09:43:25.218Z,16.60
2022-11-13T09:47:41.350Z,16.80
2022-11-13T09:51:54.605Z,16.90
2022-11-13T09:56:15.471Z,17.00
2022-11-13T10:00:25.163Z,17.10
2022-11-13T10:04:42.972Z,17.20
2022-11-13T10:08:57.829Z,17.40
2022-11-13T10:13:12.080Z,17.30
2022-11-13T10:17:26.852Z,17.40
2022-11-13T10:21:44.407Z,17.50
2022-11-13T10:25:54.699Z,17.60
2022-11-13T10:30:06.275Z,17.70
2022-11-13T10:34:16.127Z,17.80
2022-11-13T10:38:29.791Z,17.70
2022-11-13T10:42:42.346Z,17.70
2022-11-13T10:46:52.973Z,17.70
2022-11-13T10:51:04.874Z,17.70
2022-11-13T10:55:24.693Z,17.70
2022-11-13T10:59:41.989Z,17.90
2022-11-13T11:03:52.927Z,17.90
2022-11-13T11:08:03.195Z,18.00
2022-11-13T11:12:19.201Z,18.00
2022-11-13T11:16:29.221Z,18.10
2022-11-13T11:20:45.343Z,18.00
2022-11-13T11:25:00.127Z,18.10
2022-11-13T11:29:19.222Z,18.00
2022-11-13T11:33:33.842Z,17.90
2022-11-13T11:37:53.351Z,17.90
2022-11-13T11:42:11.922Z,17.90
2022-11-13T11:46:25.468Z,17.90
2022-11-13T11:50:40.364Z,17.90
2022-11-13T11:55:00.451Z,18.00
2022-11-13T11:59:27.855Z,18.00
2022-11-13T12:04:01.069Z,18.00
2022-11-13T12:08:20.918Z,17.90
2022-11-13T12:12:46.309Z,18.10
2022-11-13T12:17:16.739Z,18.20
2022-11-13T12:21:29.983Z,18.30
2022-11-13T12:25:44.066Z,18.30
2022-11-13T12:30:06.098Z,18.40
2022-11-13T12:34:24.977Z,18.50
2022-11-13T12:38:41.009Z,18.60
2022-11-13T12:42:53.376Z,18.60
2022-11-13T12:47:04.542Z,18.30
2022-11-13T12:51:15.509Z,18.10
2022-11-13T12:55:29.949Z,18.10
2022-11-13T12:59:42.894Z,18.20
2022-11-13T13:04:15.379Z,18.30
2022-11-13T13:08:52.584Z,18.20
2022-11-13T13:13:11.940Z,18.20
2022-11-13T13:17:24.197Z,18.20
2022-11-13T13:21:42.639Z,18.10
2022-11-13T13:25:52.298Z,18.10
2022-11-13T13:30:01.500Z,18.10
2022-11-13T13:34:24.186Z,18.00
2022-11-13T13:38:41.301Z,17.80
2022-11-13T13:43:15.763Z,17.70
2022-11-13T13:47:28.989Z,17.60
2022-11-13T13:51:43.891Z,17.50
2022-11-13T13:55:57.646Z,17.40
2022-11-13T14:00:11.863Z,17.30
2022-11-13T14:04:23.595Z,17.30
2022-11-13T14:08:32.761Z,17.30
2022-11-13T14:12:45.499Z,17.30
2022-11-13T14:16:55.904Z,17.20
2022-11-13T14:21:08.010Z,17.20
2022-11-13T14:25:24.142Z,17.20
2022-11-13T14:29:39.579Z,17.20
2022-11-13T14:33:51.107Z,17.20
2022-11-13T14:38:00.999Z,17.20
2022-11-13T14:42:18.507Z,17.10
2022-11-13T14:46:36.264Z,17.20
2022-11-13T14:50:53.429Z,17.20
2022-11-13T14:55:19.299Z,17.20
2022-11-13T14:59:30.127Z,17.20
2022-11-13T15:03:40.606Z,17.20
2022-11-13T15:07:50.350Z,17.20
2022-11-13T15:12:00.138Z,17.30
2022-11-13T15:16:13.620Z,17.40
2022-11-13T15:20:27.752Z,17.40
2022-11-13T15:24:36.989Z,17.40
2022-11-13T15:28:46.258Z,17.30
2022-11-13T15:32:57.600Z,17.40
2022-11-13T15:37:14.341Z,17.40
2022-11-13T15:41:25.942Z,17.40
2022-11-13T15:45:39.893Z,17.30
2022-11-13T15:50:12.248Z,17.20
2022-11-13T15:54:27.278Z,17.20
2022-11-13T15:58:36.298Z,17.10
2022-11-13T16:02:46.001Z,17.00
2022-11-13T16:06:56.437Z,16.90
2022-11-13T16:11:07.905Z,16.90
2022-11-13T16:15:18.318Z,16.80
2022-11-13T16:19:27.656Z,16.80
2022-11-13T16:23:36.664Z,16.70
2022-11-13T16:27:47.842Z,16.60
2022-11-13T16:31:57.001Z,16.50
2022-11-13T16:36:11.651Z,16.50
2022-11-13T16:40:24.105Z,16.50
2022-11-13T16:44:34.710Z,16.40
2022-11-13T16:48:43.733Z,16.40
2022-11-13T16:52:52.842Z,16.40
2022-11-13T16:57:01.862Z,16.40
2022-11-13T17:01:17.183Z,16.40
2022-11-13T17:05:26.355Z,16.30
2022-11-13T17:09:35.309Z,16.20
2022-11-13T17:13:44.336Z,16.10
2022-11-13T17:17:58.802Z,16.10
2022-11-13T17:22:07.854Z,16.00
2022-11-13T17:26:16.798Z,15.90
2022-11-13T17:30:25.909Z,15.80
2022-11-13T17:34:36.916Z,15.80
2022-11-13T17:38:45.919Z,15.70
2022-11-13T17:42:54.802Z,15.70
2022-11-13T17:47:03.922Z,15.70
2022-11-13T17:51:15.299Z,15.60
2022-11-13T17:55:24.449Z,15.60
2022-11-13T17:59:33.395Z,15.60
2022-11-13T18:03:42.593Z,15.60
2022-11-13T18:07:53.213Z,15.60
2022-11-13T18:12:02.292Z,15.60
2022-11-13T18:16:13.228Z,15.70
2022-11-13T18:20:22.365Z,15.80
2022-11-13T18:24:32.931Z,15.80
2022-11-13T18:28:42.686Z,15.80
2022-11-13T18:32:51.826Z,15.90
2022-11-13T18:37:01.163Z,16.00
2022-11-13T18:41:13.766Z,16.10
2022-11-13T18:45:22.971Z,16.10
2022-11-13T18:49:31.918Z,16.00
2022-11-13T18:53:41.564Z,16.10
2022-11-13T18:57:52.490Z,16.10
2022-11-13T19:02:02.224Z,16.00
2022-11-13T19:06:15.339Z,16.10
2022-11-13T19:10:24.830Z,16.10
2022-11-13T19:14:35.587Z,16.00
2022-11-13T19:18:46.347Z,16.00
2022-11-13T19:22:55.523Z,16.00
2022-11-13T19:27:05.228Z,15.90
2022-11-13T19:31:18.411Z,15.90
2022-11-13T19:35:28.240Z,15.80
2022-11-13T19:39:37.904Z,15.80
2022-11-13T19:43:48.443Z,15.80
2022-11-13T19:47:59.276Z,15.80
2022-11-13T19:52:08.777Z,15.70
2022-11-13T19:56:19.410Z,15.70
2022-11-13T20:00:28.634Z,15.60
2022-11-13T20:04:39.316Z,15.60
2022-11-13T20:08:48.569Z,15.70
2022-11-13T20:12:57.625Z,15.80
2022-11-13T20:17:06.795Z,15.80
2022-11-13T20:21:17.507Z,15.80
2022-11-13T20:25:26.760Z,15.80
2022-11-13T20:29:35.915Z,15.80
2022-11-13T20:33:45.185Z,15.80
2022-11-13T20:37:55.789Z,15.90
2022-11-13T20:42:05.136Z,15.90
2022-11-13T20:46:15.672Z,15.90
2022-11-13T20:50:24.751Z,15.90
2022-11-13T20:54:35.873Z,15.90
2022-11-13T20:58:45.322Z,15.90
2022-11-13T21:02:54.547Z,15.90
2022-11-13T21:07:03.757Z,15.80
2022-11-13T21:11:19.189Z,15.80
2022-11-13T21:15:28.415Z,15.80
2022-11-13T21:19:37.479Z,15.80
2022-11-13T21:23:47.046Z,15.70
2022-11-13T21:27:57.843Z,15.70
2022-11-13T21:32:07.505Z,15.70
2022-11-13T21:36:18.526Z,15.60
2022-11-13T21:40:27.614Z,15.60
2022-11-13T21:44:38.344Z,15.60
2022-11-13T22:39:13.007Z,15.50
2022-11-13T22:43:13.736Z,15.50
2022-11-13T22:47:22.778Z,15.50
2022-11-13T22:51:35.318Z,15.50
2022-11-13T22:55:44.467Z,15.50
2022-11-13T22:59:55.247Z,15.50
2022-11-13T23:04:07.272Z,15.50
2022-11-13T23:08:16.795Z,15.50
2022-11-13T23:12:27.582Z,15.50
2022-11-13T23:16:38.558Z,15.50
2022-11-13T23:20:49.009Z,15.50
2022-11-13T23:24:58.191Z,15.60
2022-11-13T23:29:07.338Z,15.60
2022-11-13T23:33:18.153Z,15.60
2022-11-13T23:37:27.325Z,15.60
2022-11-13T23:41:39.238Z,15.60
2022-11-13T23:45:48.344Z,15.60
2022-11-13T23:49:58.819Z,15.70
2022-11-13T23:54:08.003Z,15.70
2022-11-13T23:58:18.161Z,15.60
